createdAt,value
2019-05-06T00:00:59.614Z,98235.58
2019-05-06T00:02:04.557Z,98241.09
2019-05-06T00:03:07.469Z,98245.40
2019-05-06T00:04:10.294Z,98242.17
2019-05-06T00:05:14.412Z,98240.86
2019-05-06T00:06:17.763Z,98238.16
2019-05-06T00:07:20.906Z,98238.16
2019-05-06T00:08:24.014Z,98234.61
2019-05-06T00:09:26.798Z,98234.61
2019-05-06T00:10:29.606Z,98233.55
2019-05-06T00:11:34.420Z,98239.23
2019-05-06T00:12:36.967Z,98228.51
2019-05-06T00:13:39.776Z,98233.61
2019-05-06T00:14:43.651Z,98238.23
2019-05-06T00:15:47.598Z,98238.23
2019-05-06T00:16:50.464Z,98236.95
2019-05-06T00:17:53.847Z,98233.98
2019-05-06T00:18:56.869Z,98227.53
2019-05-06T00:19:59.671Z,98241.52
2019-05-06T00:21:04.624Z,98239.11
2019-05-06T00:22:07.839Z,98234.28
2019-05-06T00:23:19.538Z,98233.45
2019-05-06T00:24:23.945Z,98228.35
2019-05-06T00:25:35.166Z,98239.70
2019-05-06T00:26:57.792Z,98229.20
2019-05-06T00:28:18.116Z,98234.64
2019-05-06T00:29:24.360Z,98236.26
2019-05-06T00:30:27.605Z,98234.91
2019-05-06T00:31:30.481Z,98234.91
2019-05-06T00:32:34.786Z,98232.98
2019-05-06T00:33:40.874Z,98231.42
2019-05-06T00:34:44.050Z,98237.63
2019-05-06T00:35:47.710Z,98237.63
2019-05-06T00:36:54.468Z,98230.39
2019-05-06T00:37:57.850Z,98230.39
2019-05-06T00:39:11.631Z,98234.75
2019-05-06T00:40:21.186Z,98232.05
2019-05-06T00:41:35.896Z,98222.69
2019-05-06T00:43:04.668Z,98231.81
2019-05-06T00:44:06.777Z,98236.73
2019-05-06T00:45:10.182Z,98235.93
2019-05-06T00:46:14.315Z,98234.05
2019-05-06T00:47:17.647Z,98232.17
2019-05-06T00:48:21.554Z,98236.77
2019-05-06T00:49:24.550Z,98237.56
2019-05-06T00:50:28.167Z,98227.63
2019-05-06T00:51:33.899Z,98236.24
2019-05-06T00:52:39.459Z,98233.28
2019-05-06T00:53:45.787Z,98240.02
2019-05-06T00:54:49.913Z,98242.16
2019-05-06T00:55:55.476Z,98235.19
2019-05-06T00:57:00.315Z,98240.28
2019-05-06T00:58:04.044Z,98237.15
2019-05-06T00:59:09.752Z,98235.83
2019-05-06T01:00:13.565Z,98246.65
2019-05-06T01:01:25.845Z,98240.24
2019-05-06T01:02:21.121Z,98240.52
2019-05-06T01:03:24.399Z,98237.05
2019-05-06T01:04:27.674Z,98241.98
2019-05-06T01:05:30.882Z,98235.84
2019-05-06T01:06:34.462Z,98235.84
2019-05-06T01:07:39.593Z,98241.51
2019-05-06T01:08:44.066Z,98240.52
2019-05-06T01:09:49.670Z,98241.09
2019-05-06T01:10:57.234Z,98241.09
2019-05-06T01:12:00.457Z,98242.42
2019-05-06T01:13:11.443Z,98240.22
2019-05-06T01:14:19.486Z,98244.79
2019-05-06T01:15:23.846Z,98240.17
2019-05-06T01:16:27.230Z,98242.84
2019-05-06T01:17:30.736Z,98236.96
2019-05-06T01:18:34.108Z,98235.92
2019-05-06T01:19:37.003Z,98235.92
2019-05-06T01:20:39.795Z,98237.83
2019-05-06T01:21:44.543Z,98237.06
2019-05-06T01:22:47.568Z,98233.48
2019-05-06T01:23:51.948Z,98230.25
2019-05-06T01:24:55.832Z,98237.98
2019-05-06T01:25:59.190Z,98236.08
2019-05-06T01:27:03.880Z,98236.58
2019-05-06T01:28:06.827Z,98233.62
2019-05-06T01:29:14.432Z,98233.62
2019-05-06T01:30:17.255Z,98240.48
2019-05-06T01:31:20.429Z,98243.24
2019-05-06T01:32:23.626Z,98237.27
2019-05-06T01:33:26.522Z,98242.94
2019-05-06T01:34:29.572Z,98241.36
2019-05-06T01:35:35.603Z,98237.88
2019-05-06T01:36:39.261Z,98234.68
2019-05-06T01:37:44.123Z,98234.68
2019-05-06T01:39:14.832Z,98245.01
2019-05-06T01:40:29.227Z,98239.12
2019-05-06T01:41:59.753Z,98241.52
2019-05-06T01:43:14.512Z,98246.95
2019-05-06T01:44:17.417Z,98244.28
2019-05-06T01:45:20.672Z,98245.34
2019-05-06T01:46:24.318Z,98247.75
2019-05-06T01:47:27.255Z,98248.28
2019-05-06T01:48:48.499Z,98246.67
2019-05-06T01:49:51.291Z,98247.97
2019-05-06T01:50:54.106Z,98248.78
2019-05-06T01:51:56.897Z,98248.78
2019-05-06T01:52:59.738Z,98255.52
2019-05-06T01:54:03.793Z,98256.09
2019-05-06T01:55:10.302Z,98251.79
2019-05-06T01:56:14.505Z,98251.79
2019-05-06T01:57:17.465Z,98245.91
2019-05-06T01:58:20.308Z,98253.14
2019-05-06T01:59:24.665Z,98254.23
2019-05-06T02:00:28.399Z,98255.32
2019-05-06T02:01:34.091Z,98258.02
2019-05-06T02:02:36.977Z,98252.67
2019-05-06T02:03:39.877Z,98255.64
2019-05-06T02:04:44.374Z,98260.20
2019-05-06T02:05:47.107Z,98261.25
2019-05-06T02:06:49.925Z,98256.18
2019-05-06T02:07:54.936Z,98257.55
2019-05-06T02:08:57.560Z,98259.77
2019-05-06T02:10:00.362Z,98261.41
2019-05-06T02:11:04.070Z,98261.41
2019-05-06T02:12:07.050Z,98264.06
2019-05-06T02:13:14.133Z,98258.95
2019-05-06T02:14:17.341Z,98263.47
2019-05-06T02:15:20.129Z,98264.53
2019-05-06T02:16:24.039Z,98257.59
2019-05-06T02:17:27.068Z,98260.88
2019-05-06T02:18:29.906Z,98261.16
2019-05-06T02:19:34.545Z,98264.64
2019-05-06T02:20:40.312Z,98261.70
2019-05-06T02:22:08.059Z,98263.60
2019-05-06T02:23:15.450Z,98256.03
2019-05-06T02:24:24.327Z,98256.03
2019-05-06T02:25:34.015Z,98257.37
2019-05-06T02:26:36.249Z,98253.04
2019-05-06T02:27:41.874Z,98257.84
2019-05-06T02:28:47.462Z,98256.23
2019-05-06T02:29:58.706Z,98256.23
2019-05-06T02:31:18.810Z,98261.95
2019-05-06T02:32:35.911Z,98257.13
2019-05-06T02:33:45.073Z,98261.39
2019-05-06T02:35:05.475Z,98261.39
2019-05-06T02:36:15.902Z,98268.38
2019-05-06T02:37:37.427Z,98268.13
2019-05-06T02:38:47.979Z,98269.48
2019-05-06T02:39:44.786Z,98262.76
2019-05-06T02:40:48.080Z,98265.98
2019-05-06T02:41:51.238Z,98268.39
2019-05-06T02:42:55.185Z,98271.91
2019-05-06T02:43:58.174Z,98271.65
2019-05-06T02:45:03.839Z,98274.33
2019-05-06T02:46:05.957Z,98283.23
2019-05-06T02:47:35.420Z,98280.00
2019-05-06T02:48:54.268Z,98281.06
2019-05-06T02:49:59.226Z,98281.06
2019-05-06T02:51:13.351Z,98284.02
2019-05-06T02:52:15.472Z,98279.70
2019-05-06T02:53:23.577Z,98278.11
2019-05-06T02:54:26.828Z,98276.21
2019-05-06T02:55:33.275Z,98276.21
2019-05-06T02:56:34.061Z,98282.92
2019-05-06T02:57:36.895Z,98279.72
2019-05-06T02:58:40.025Z,98279.72
2019-05-06T02:59:44.212Z,98272.73
2019-05-06T03:00:47.805Z,98277.03
2019-05-06T03:01:53.555Z,98285.89
2019-05-06T03:02:55.098Z,98284.26
2019-05-06T03:04:04.071Z,98284.53
2019-05-06T03:05:05.215Z,98284.53
2019-05-06T03:06:08.095Z,98282.39
2019-05-06T03:07:14.211Z,98286.42
2019-05-06T03:08:15.686Z,98281.05
2019-05-06T03:09:18.455Z,98285.08
2019-05-06T03:10:24.305Z,98285.08
2019-05-06T03:11:25.810Z,98282.91
2019-05-06T03:12:28.588Z,98279.14
2019-05-06T03:13:36.883Z,98287.52
2019-05-06T03:14:40.094Z,98282.16
2019-05-06T03:15:43.597Z,98276.77
2019-05-06T03:16:46.575Z,98276.77
2019-05-06T03:17:49.377Z,98284.31
2019-05-06T03:18:53.217Z,98278.91
2019-05-06T03:20:03.950Z,98281.86
2019-05-06T03:21:25.109Z,98282.42
2019-05-06T03:22:43.607Z,98281.62
2019-05-06T03:23:47.325Z,98281.62
2019-05-06T03:24:54.689Z,98280.25
2019-05-06T03:26:00.027Z,98280.25
2019-05-06T03:27:08.634Z,98274.63
2019-05-06T03:28:14.335Z,98278.66
2019-05-06T03:29:17.230Z,98278.66
2019-05-06T03:30:25.631Z,98276.52
2019-05-06T03:31:27.567Z,98259.30
2019-05-06T03:32:37.853Z,98275.17
2019-05-06T03:33:55.011Z,98277.31
2019-05-06T03:35:01.205Z,98277.31
2019-05-06T03:36:00.484Z,98281.07
2019-05-06T03:36:49.629Z,98281.07
2019-05-06T03:37:53.359Z,98281.07
2019-05-06T03:39:03.097Z,98276.49
2019-05-06T03:40:05.797Z,98278.39
2019-05-06T03:41:09.733Z,98281.62
2019-05-06T03:42:16.714Z,98281.86
2019-05-06T03:43:23.237Z,98279.45
2019-05-06T03:44:26.510Z,98280.52
2019-05-06T03:45:42.883Z,98288.31
2019-05-06T03:47:05.293Z,98282.42
2019-05-06T03:48:19.893Z,98283.20
2019-05-06T03:49:23.911Z,98287.23
2019-05-06T03:50:26.723Z,98286.17
2019-05-06T03:51:29.840Z,98279.18
2019-05-06T03:52:34.208Z,98279.18
2019-05-06T03:53:37.230Z,98287.27
2019-05-06T03:54:45.065Z,98287.27
2019-05-06T03:55:47.118Z,98271.67
2019-05-06T03:56:48.970Z,98273.83
2019-05-06T03:57:53.876Z,98273.83
2019-05-06T03:58:56.971Z,98285.09
2019-05-06T04:00:04.263Z,98277.56
2019-05-06T04:01:04.802Z,98277.56
2019-05-06T04:02:08.094Z,98284.30
2019-05-06T04:03:13.799Z,98283.23
2019-05-06T04:04:15.688Z,98284.84
2019-05-06T04:05:18.494Z,98284.84
2019-05-06T04:06:24.173Z,98289.67
2019-05-06T04:07:26.256Z,98283.23
2019-05-06T04:08:29.515Z,98287.78
2019-05-06T04:09:33.521Z,98289.95
2019-05-06T04:10:39.598Z,98287.27
2019-05-06T04:11:43.283Z,98293.71
2019-05-06T04:12:46.243Z,98296.91
2019-05-06T04:13:49.105Z,98296.91
2019-05-06T04:14:53.944Z,98293.70
2019-05-06T04:16:07.908Z,98291.27
2019-05-06T04:17:15.160Z,98295.30
2019-05-06T04:18:18.037Z,98292.61
2019-05-06T04:19:24.728Z,98292.61
2019-05-06T04:20:48.045Z,98287.51
2019-05-06T04:21:56.174Z,98293.70
2019-05-06T04:23:24.105Z,98292.36
2019-05-06T04:24:53.916Z,98280.54
2019-05-06T04:26:09.276Z,98280.54
2019-05-06T04:27:13.574Z,98290.22
2019-05-06T04:28:23.844Z,98291.00
2019-05-06T04:29:28.606Z,98285.90
2019-05-06T04:30:33.372Z,98299.08
2019-05-06T04:31:35.908Z,98303.39
2019-05-06T04:32:38.703Z,98303.39
2019-05-06T04:33:50.084Z,98303.39
2019-05-06T04:34:49.218Z,98299.08
2019-05-06T04:35:54.167Z,98299.08
2019-05-06T04:36:56.869Z,98309.03
2019-05-06T04:38:02.932Z,98307.92
2019-05-06T04:39:12.861Z,98315.75
2019-05-06T04:40:14.450Z,98306.59
2019-05-06T04:41:26.582Z,98315.20
2019-05-06T04:42:28.062Z,98315.98
2019-05-06T04:43:33.694Z,98310.89
2019-05-06T04:44:35.375Z,98310.89
2019-05-06T04:45:38.171Z,98318.67
2019-05-06T04:46:44.022Z,98319.75
2019-05-06T04:47:53.671Z,98319.75
2019-05-06T04:48:58.108Z,98321.63
2019-05-06T04:50:04.418Z,98325.90
2019-05-06T04:51:05.514Z,98326.45
2019-05-06T04:52:13.879Z,98324.05
2019-05-06T04:53:16.319Z,98322.70
2019-05-06T04:54:26.157Z,98322.44
2019-05-06T04:55:25.947Z,98320.85
2019-05-06T04:56:28.738Z,98320.85
2019-05-06T04:57:33.600Z,98320.02
2019-05-06T04:58:36.166Z,98320.02
2019-05-06T04:59:39.036Z,98321.11
2019-05-06T05:00:44.524Z,98322.45
2019-05-06T05:01:48.441Z,98315.45
2019-05-06T05:02:54.742Z,98321.08
2019-05-06T05:03:55.771Z,98314.38
2019-05-06T05:04:58.568Z,98314.38
2019-05-06T05:06:02.971Z,98321.37
2019-05-06T05:07:06.312Z,98323.50
2019-05-06T05:08:13.374Z,98314.38
2019-05-06T05:09:17.459Z,98314.38
2019-05-06T05:10:26.902Z,98314.09
2019-05-06T05:12:02.530Z,98314.09
2019-05-06T05:13:20.127Z,98320.02
2019-05-06T05:14:42.382Z,98317.30
2019-05-06T05:16:09.717Z,98314.08
2019-05-06T05:17:26.231Z,98315.41
2019-05-06T05:18:32.919Z,98315.67
2019-05-06T05:19:36.032Z,98314.59
2019-05-06T05:20:45.526Z,98320.55
2019-05-06T05:21:43.715Z,98313.54
2019-05-06T05:22:46.591Z,98316.76
2019-05-06T05:23:52.406Z,98316.23
2019-05-06T05:25:03.437Z,98317.83
2019-05-06T05:26:08.290Z,98320.21
2019-05-06T05:27:12.552Z,98320.21
2019-05-06T05:28:15.558Z,98327.46
2019-05-06T05:29:18.423Z,98325.56
2019-05-06T05:44:08.404Z,98331.94
2019-05-06T05:45:12.863Z,98329.78
2019-05-06T05:46:15.835Z,98329.78
2019-05-06T05:47:18.738Z,98330.29
2019-05-06T05:48:32.522Z,98333.02
2019-05-06T05:50:02.951Z,98335.16
2019-05-06T05:51:05.785Z,98335.16
2019-05-06T05:52:08.597Z,98339.46
2019-05-06T05:53:12.092Z,98339.73
2019-05-06T05:54:15.036Z,98337.83
2019-05-06T05:55:18.316Z,98337.00
2019-05-06T05:56:23.825Z,98332.44
2019-05-06T05:57:26.253Z,98333.78
2019-05-06T05:58:29.042Z,98337.84
2019-05-06T05:59:32.874Z,98346.70
2019-05-06T06:00:36.444Z,98334.05
2019-05-06T06:01:44.257Z,98334.05
2019-05-06T06:02:47.110Z,98349.03
2019-05-06T06:03:52.910Z,98339.35
2019-05-06T06:04:57.748Z,98339.35
2019-05-06T06:06:03.058Z,98341.53
2019-05-06T06:07:09.553Z,98342.07
2019-05-06T06:08:36.996Z,98342.07
2019-05-06T06:09:48.001Z,98336.88
2019-05-06T06:11:00.449Z,98339.82
2019-05-06T06:12:05.708Z,98342.52
2019-05-06T06:13:09.392Z,98342.52
2019-05-06T06:14:33.155Z,98337.38
2019-05-06T06:15:54.670Z,98333.81
2019-05-06T06:17:23.781Z,98341.06
2019-05-06T06:18:44.402Z,98327.03
2019-05-06T06:19:53.722Z,98336.91
2019-05-06T06:21:28.103Z,98336.91
2019-05-06T06:22:29.814Z,98340.17
2019-05-06T06:23:43.167Z,98339.08
2019-05-06T06:24:46.474Z,98341.78
2019-05-06T06:25:52.829Z,98341.98
2019-05-06T06:26:55.697Z,98343.58
2019-05-06T06:28:02.635Z,98344.09
2019-05-06T06:29:12.508Z,98344.09
2019-05-06T06:30:18.389Z,98345.16
2019-05-06T06:31:38.637Z,98340.34
2019-05-06T06:32:41.945Z,98340.32
2019-05-06T06:33:49.923Z,98343.22
2019-05-06T06:35:14.543Z,98343.12
2019-05-06T06:36:41.877Z,98346.66
2019-05-06T06:38:09.810Z,98346.66
2019-05-06T06:39:16.893Z,98347.23
2019-05-06T06:40:24.008Z,98347.30
2019-05-06T06:41:26.480Z,98347.58
2019-05-06T06:42:29.800Z,98339.80
2019-05-06T06:43:34.863Z,98339.80
2019-05-06T06:44:37.663Z,98346.23
2019-05-06T06:45:42.151Z,98342.86
2019-05-06T06:46:45.280Z,98355.28
2019-05-06T06:47:51.889Z,98353.69
2019-05-06T06:48:54.850Z,98342.59
2019-05-06T06:49:57.730Z,98353.17
2019-05-06T06:51:03.311Z,98353.17
2019-05-06T06:52:11.241Z,98352.93
2019-05-06T06:53:12.304Z,98354.27
2019-05-06T06:54:15.271Z,98343.70
2019-05-06T06:55:20.061Z,98343.70
2019-05-06T06:56:29.357Z,98345.08
2019-05-06T06:57:53.154Z,98346.34
2019-05-06T06:59:22.180Z,98342.23
2019-05-06T07:00:44.263Z,98345.33
2019-05-06T07:01:55.244Z,98342.52
2019-05-06T07:03:03.648Z,98348.00
2019-05-06T07:04:13.876Z,98349.27
2019-05-06T07:05:29.966Z,98343.95
2019-05-06T07:06:42.186Z,98340.99
2019-05-06T07:07:47.521Z,98340.99
2019-05-06T07:08:52.618Z,98343.48
2019-05-06T07:09:55.872Z,98347.75
2019-05-06T07:10:58.661Z,98347.75
2019-05-06T07:12:07.240Z,98344.72
2019-05-06T07:13:12.029Z,98345.02
2019-05-06T07:14:16.463Z,98344.93
2019-05-06T07:15:19.281Z,98344.93
2019-05-06T07:16:23.521Z,98338.97
2019-05-06T07:17:34.646Z,98346.32
2019-05-06T07:18:37.458Z,98341.77
2019-05-06T07:19:48.065Z,98345.11
2019-05-06T07:23:55.574Z,98346.86
2019-05-06T07:24:58.429Z,98346.86
2019-05-06T07:26:04.467Z,98344.82
2019-05-06T07:27:32.316Z,98345.19
2019-05-06T07:28:37.651Z,98344.73
2019-05-06T07:29:48.410Z,98335.11
2019-05-06T07:30:45.778Z,98343.89
2019-05-06T07:31:53.270Z,98342.64
2019-05-06T07:32:55.522Z,98342.23
2019-05-06T07:33:58.322Z,98341.64
2019-05-06T07:35:06.254Z,98330.11
2019-05-06T07:36:09.373Z,98331.66
2019-05-06T07:37:12.831Z,98331.66
2019-05-06T07:38:15.813Z,98342.17
2019-05-06T07:39:23.633Z,98337.53
2019-05-06T07:40:24.134Z,98335.12
2019-05-06T07:41:46.156Z,98336.67
2019-05-06T07:42:52.670Z,98324.59
2019-05-06T07:44:14.683Z,98341.82
2019-05-06T07:45:33.727Z,98336.78
2019-05-06T07:46:47.660Z,98333.34
2019-05-06T07:48:04.253Z,98335.16
2019-05-06T07:49:07.791Z,98331.02
2019-05-06T07:50:13.050Z,98324.11
2019-05-06T07:51:19.043Z,98328.43
2019-05-06T07:52:23.286Z,98325.38
2019-05-06T07:53:26.892Z,98327.46
2019-05-06T07:55:53.285Z,98330.28
2019-05-06T07:56:56.103Z,98322.94
2019-05-06T07:57:59.047Z,98329.47
2019-05-06T07:59:12.758Z,98324.76
2019-05-06T08:00:16.119Z,98319.64
2019-05-06T08:01:23.435Z,98318.77
2019-05-06T08:02:27.260Z,98311.48
2019-05-06T08:03:32.893Z,98312.91
2019-05-06T08:04:35.363Z,98312.91
2019-05-06T08:05:51.591Z,98317.48
2019-05-06T08:06:42.980Z,98298.82
2019-05-06T08:07:48.973Z,98313.35
2019-05-06T08:08:53.775Z,98307.58
2019-05-06T08:10:02.302Z,98311.87
2019-05-06T08:11:05.787Z,98311.59
2019-05-06T08:12:12.715Z,98308.92
2019-05-06T08:13:22.563Z,98308.92
2019-05-06T08:14:22.799Z,98322.53
2019-05-06T08:15:26.290Z,98322.53
2019-05-06T08:16:31.904Z,98317.53
2019-05-06T08:17:42.346Z,98320.30
2019-05-06T08:18:45.735Z,98315.54
2019-05-06T08:19:49.540Z,98314.67
2019-05-06T08:20:57.927Z,98314.67
2019-05-06T08:22:03.923Z,98322.53
2019-05-06T08:23:24.358Z,98317.58
2019-05-06T08:24:28.364Z,98325.28
2019-05-06T08:25:47.300Z,98312.53
2019-05-06T08:26:52.208Z,98312.53
2019-05-06T08:28:06.874Z,98324.61
2019-05-06T08:29:12.151Z,98314.80
2019-05-06T08:30:17.459Z,98324.69
2019-05-06T08:31:28.923Z,98325.16
2019-05-06T08:32:32.294Z,98317.88
2019-05-06T08:33:35.536Z,98312.97
2019-05-06T08:34:39.209Z,98312.97
2019-05-06T08:35:44.489Z,98320.02
2019-05-06T08:37:07.494Z,98304.86
2019-05-06T08:38:12.200Z,98310.69
2019-05-06T08:39:17.814Z,98318.16
2019-05-06T08:40:28.293Z,98309.91
2019-05-06T08:41:33.157Z,98312.59
2019-05-06T08:42:39.722Z,98312.59
2019-05-06T08:43:43.115Z,98308.79
2019-05-06T08:44:46.981Z,98307.27
2019-05-06T08:45:52.832Z,98312.67
2019-05-06T08:47:02.552Z,98312.67
2019-05-06T08:48:06.151Z,98299.44
2019-05-06T08:49:12.163Z,98305.84
2019-05-06T08:50:33.058Z,98297.98
2019-05-06T08:51:56.349Z,98306.82
2019-05-06T08:53:24.267Z,98306.82
2019-05-06T08:54:35.740Z,98307.22
2019-05-06T08:55:41.963Z,98287.44
2019-05-06T08:56:44.335Z,98301.50
2019-05-06T08:57:47.994Z,98298.82
2019-05-06T08:58:52.855Z,98295.39
2019-05-06T08:59:57.363Z,98295.39
2019-05-06T09:01:09.913Z,98300.28
2019-05-06T09:02:16.822Z,98302.63
2019-05-06T09:03:22.189Z,98302.63
2019-05-06T09:04:25.724Z,98301.89
2019-05-06T09:05:28.518Z,98296.03
2019-05-06T09:06:34.239Z,98301.09
2019-05-06T09:07:36.258Z,98295.17
2019-05-06T09:08:39.217Z,98308.25
2019-05-06T09:09:42.273Z,98301.36
2019-05-06T09:10:46.281Z,98301.36
2019-05-06T09:11:49.581Z,98297.22
2019-05-06T09:12:56.073Z,98295.22
2019-05-06T09:13:58.957Z,98284.34
2019-05-06T09:15:03.536Z,98291.80
2019-05-06T09:16:07.265Z,98291.80
2019-05-06T09:17:12.073Z,98286.69
2019-05-06T09:18:18.504Z,98289.41
2019-05-06T09:19:25.268Z,98294.37
2019-05-06T09:20:29.046Z,98294.21
2019-05-06T09:21:33.477Z,98285.79
2019-05-06T09:22:37.351Z,98285.79
2019-05-06T09:23:42.515Z,98294.52
2019-05-06T09:24:45.963Z,98293.24
2019-05-06T09:25:49.107Z,98295.05
2019-05-06T09:27:22.479Z,98286.03
2019-05-06T09:28:34.242Z,98294.78
2019-05-06T09:29:54.323Z,98290.32
2019-05-06T09:31:16.642Z,98291.72
2019-05-06T09:32:27.207Z,98288.73
2019-05-06T09:33:42.521Z,98287.64
2019-05-06T09:34:52.738Z,98287.96
2019-05-06T09:35:56.311Z,98287.83
2019-05-06T09:37:19.011Z,98287.83
2019-05-06T09:38:22.837Z,98291.66
2019-05-06T09:39:29.201Z,98282.32
2019-05-06T09:40:32.163Z,98282.32
2019-05-06T09:41:35.947Z,98277.97
2019-05-06T09:42:42.539Z,98283.59
2019-05-06T09:43:45.875Z,98282.59
2019-05-06T09:44:50.642Z,98292.86
2019-05-06T09:45:53.893Z,98292.86
2019-05-06T09:47:04.457Z,98287.05
2019-05-06T09:48:13.025Z,98289.39
2019-05-06T09:49:24.226Z,98287.45
2019-05-06T09:50:27.455Z,98284.58
2019-05-06T09:51:33.209Z,98294.15
2019-05-06T09:52:36.399Z,98289.14
2019-05-06T09:54:01.474Z,98287.73
2019-05-06T09:55:24.854Z,98289.83
2019-05-06T09:56:34.869Z,98279.92
2019-05-06T09:57:57.938Z,98281.45
2019-05-06T09:59:03.870Z,98281.38
2019-05-06T10:00:06.679Z,98283.72
2019-05-06T10:01:09.538Z,98288.37
2019-05-06T10:02:18.631Z,98279.23
2019-05-06T10:03:22.587Z,98277.67
2019-05-06T10:04:25.939Z,98284.55
2019-05-06T10:05:28.714Z,98281.48
2019-05-06T10:06:32.835Z,98267.30
2019-05-06T10:07:36.261Z,98269.69
2019-05-06T10:08:42.273Z,98272.09
2019-05-06T10:09:46.043Z,98277.70
2019-05-06T10:10:56.933Z,98278.72
2019-05-06T10:11:54.323Z,98288.80
2019-05-06T10:12:57.133Z,98288.80
2019-05-06T10:14:02.995Z,98277.80
2019-05-06T10:15:32.624Z,98280.63
2019-05-06T10:16:17.473Z,98272.39
2019-05-06T10:17:21.207Z,98272.39
2019-05-06T10:18:24.349Z,98274.98
2019-05-06T10:19:27.258Z,98266.87
2019-05-06T10:20:33.083Z,98296.31
2019-05-06T10:21:36.026Z,98296.31
2019-05-06T10:22:38.853Z,98281.55
2019-05-06T10:23:42.621Z,98275.23
2019-05-06T10:24:52.148Z,98272.37
2019-05-06T10:25:56.174Z,98281.17
2019-05-06T10:26:59.389Z,98281.17
2019-05-06T10:28:04.065Z,98283.78
2019-05-06T10:29:25.993Z,98275.19
2019-05-06T10:42:47.749Z,98269.06
2019-05-06T10:43:53.171Z,98271.70
2019-05-06T10:44:58.923Z,98275.67
2019-05-06T10:46:08.375Z,98269.34
2019-05-06T10:47:14.310Z,98269.13
2019-05-06T10:48:17.520Z,98269.13
2019-05-06T10:49:22.677Z,98264.61
2019-05-06T10:50:31.236Z,98270.81
2019-05-06T10:51:46.904Z,98270.81
2019-05-06T10:53:13.554Z,98269.28
2019-05-06T10:54:16.114Z,98265.70
2019-05-06T10:55:23.162Z,98271.11
2019-05-06T10:56:52.284Z,98267.11
2019-05-06T10:57:47.742Z,98261.75
2019-05-06T10:58:52.750Z,98253.31
2019-05-06T10:59:55.819Z,98260.69
2019-05-06T11:01:23.275Z,98264.20
2019-05-06T11:02:45.099Z,98256.02
2019-05-06T11:03:48.366Z,98233.25
2019-05-06T11:04:52.984Z,98242.58
2019-05-06T11:06:02.589Z,98242.58
2019-05-06T11:07:31.293Z,98247.00
2019-05-06T11:08:28.548Z,98247.00
2019-05-06T11:09:33.286Z,98257.73
2019-05-06T11:10:45.353Z,98253.77
2019-05-06T11:11:47.386Z,98261.10
2019-05-06T11:12:53.135Z,98255.87
2019-05-06T11:14:12.423Z,98247.80
2019-05-06T11:15:23.079Z,98247.80
2019-05-06T11:16:24.030Z,98243.73
2019-05-06T11:17:28.355Z,98233.40
2019-05-06T11:18:42.396Z,98239.24
2019-05-06T11:19:48.806Z,98230.20
2019-05-06T11:20:53.024Z,98230.20
2019-05-06T11:22:03.620Z,98234.29
2019-05-06T11:23:07.403Z,98234.29
2019-05-06T11:24:24.185Z,98230.29
2019-05-06T11:25:28.228Z,98230.29
2019-05-06T11:26:33.037Z,98253.91
2019-05-06T11:27:47.388Z,98247.37
2019-05-06T11:29:06.413Z,98249.42
2019-05-06T11:30:21.876Z,98251.55
2019-05-06T11:32:02.313Z,98234.05
2019-05-06T11:33:22.271Z,98234.05
2019-05-06T11:34:52.473Z,98244.27
2019-05-06T11:36:08.452Z,98244.27
2019-05-06T11:37:50.528Z,98234.39
2019-05-06T11:38:55.933Z,98222.80
2019-05-06T11:39:58.703Z,98228.02
2019-05-06T11:41:18.268Z,98229.38
2019-05-06T11:42:25.260Z,98231.41
2019-05-06T11:43:17.290Z,98226.37
2019-05-06T11:44:23.969Z,98223.11
2019-05-06T11:45:29.086Z,98229.50
2019-05-06T11:46:34.286Z,98229.50
2019-05-06T11:47:38.151Z,98233.63
2019-05-06T11:48:43.362Z,98233.26
2019-05-06T11:49:47.319Z,98234.70
2019-05-06T11:50:51.996Z,98229.44
2019-05-06T11:51:58.871Z,98229.84
2019-05-06T11:53:05.028Z,98229.84
2019-05-06T11:54:17.469Z,98222.99
2019-05-06T11:55:13.922Z,98230.20
2019-05-06T11:56:16.976Z,98226.34
2019-05-06T11:57:23.276Z,98213.89
2019-05-06T11:58:48.343Z,98220.38
2019-05-06T11:59:52.807Z,98224.63
2019-05-06T12:01:02.741Z,98213.92
2019-05-06T12:02:07.433Z,98213.92
2019-05-06T12:03:12.667Z,98214.25
2019-05-06T12:04:15.419Z,98214.25
2019-05-06T12:05:26.766Z,98195.82
2019-05-06T12:06:29.960Z,98201.67
2019-05-06T12:07:36.456Z,98220.28
2019-05-06T12:08:43.400Z,98206.14
2019-05-06T12:09:46.301Z,98203.02
2019-05-06T12:10:52.007Z,98193.42
2019-05-06T12:11:55.479Z,98193.42
2019-05-06T12:13:23.006Z,98200.82
2019-05-06T12:14:22.516Z,98201.98
2019-05-06T12:15:37.754Z,98201.98
2019-05-06T12:16:41.399Z,98205.23
2019-05-06T12:17:50.573Z,98205.23
2019-05-06T12:18:59.811Z,98221.13
2019-05-06T12:20:03.015Z,98216.90
2019-05-06T12:21:12.856Z,98211.94
2019-05-06T12:22:12.814Z,98201.38
2019-05-06T12:23:16.299Z,98209.41
2019-05-06T12:24:19.776Z,98216.44
2019-05-06T12:25:23.736Z,98215.52
2019-05-06T12:26:32.181Z,98212.46
2019-05-06T12:27:46.864Z,98213.27
2019-05-06T12:28:49.693Z,98213.27
2019-05-06T12:29:53.031Z,98215.05
2019-05-06T12:30:56.124Z,98202.48
2019-05-06T12:32:07.199Z,98215.71
2019-05-06T12:33:37.794Z,98211.45
2019-05-06T12:34:42.838Z,98209.86
2019-05-06T12:35:47.798Z,98219.85
2019-05-06T12:36:53.570Z,98199.41
2019-05-06T12:38:05.161Z,98199.17
2019-05-06T12:39:26.912Z,98198.86
2019-05-06T12:40:31.974Z,98198.86
2019-05-06T12:41:35.844Z,98216.08
2019-05-06T12:42:43.187Z,98214.50
2019-05-06T12:43:52.189Z,98212.59
2019-05-06T12:45:33.361Z,98221.30
2019-05-06T12:46:48.533Z,98221.30
2019-05-06T12:48:17.057Z,98196.46
2019-05-06T12:49:29.448Z,98207.57
2019-05-06T12:50:33.253Z,98206.59
2019-05-06T12:51:38.616Z,98220.55
2019-05-06T12:52:44.236Z,98192.14
2019-05-06T12:53:47.356Z,98200.32
2019-05-06T12:54:53.841Z,98212.20
2019-05-06T12:56:04.142Z,98212.20
2019-05-06T12:57:06.625Z,98208.16
2019-05-06T12:58:13.383Z,98211.20
2019-05-06T12:59:17.675Z,98211.20
2019-05-06T13:00:23.590Z,98215.58
2019-05-06T13:01:33.428Z,98187.03
2019-05-06T13:02:33.659Z,98203.85
2019-05-06T13:03:37.163Z,98203.85
2019-05-06T13:04:53.284Z,98214.45
2019-05-06T13:05:45.373Z,98214.78
2019-05-06T13:06:48.274Z,98218.93
2019-05-06T13:08:05.584Z,98221.42
2019-05-06T13:09:08.208Z,98213.88
2019-05-06T13:10:13.850Z,98221.06
2019-05-06T13:11:17.471Z,98227.39
2019-05-06T13:12:23.941Z,98212.05
2019-05-06T13:13:27.631Z,98196.66
2019-05-06T13:14:33.162Z,98217.91
2019-05-06T13:15:36.161Z,98217.91
2019-05-06T13:16:42.564Z,98220.41
2019-05-06T13:17:46.361Z,98212.05
2019-05-06T13:18:51.785Z,98212.05
2019-05-06T13:19:53.949Z,98230.35
2019-05-06T13:21:08.650Z,98230.35
2019-05-06T13:22:14.738Z,98220.73
2019-05-06T13:23:35.360Z,98219.62
2019-05-06T13:24:38.585Z,98212.78
2019-05-06T13:25:44.860Z,98210.03
2019-05-06T13:26:45.944Z,98201.83
2019-05-06T13:27:52.611Z,98216.02
2019-05-06T13:29:24.198Z,98202.64
2019-05-06T13:30:06.222Z,98209.16
2019-05-06T13:31:17.352Z,98214.34
2019-05-06T13:32:16.165Z,98219.57
2019-05-06T13:33:44.781Z,98222.09
2019-05-06T13:34:48.246Z,98224.13
2019-05-06T13:35:53.413Z,98215.94
2019-05-06T13:36:56.297Z,98223.56
2019-05-06T13:37:59.172Z,98232.46
2019-05-06T13:39:16.200Z,98235.25
2019-05-06T13:40:10.434Z,98222.55
2019-05-06T13:41:22.790Z,98222.55
2019-05-06T13:42:27.184Z,98204.34